Benedict, Kansas
Current Conditions -  °F | °C
As of 12:52 PM on Thursday 30 Oct 2014 (Local Time) from KCNU Reporting Station
Clear Clear  
Wind Chill: 70°   Ceiling: Unl
Heat Index: 70°   Visibility: 10mi
Dew Point: 41°   Wind: 15mph
Humidity: 35%   Direction: 330°NNW
Pressure: 30.06"   Gusts: 24mph
Location:  37.63°N, 95.75°W
Report Text: KCNU 301752Z AUTO 33013G21KT 10SM CLR 21/05 A3006 RMK AO2 SLP175 T02110050 10211 20106 50002
Loading
Personal Weather Stations






























Interactive Weather Map
Tropical Storm Tracking
New forecast layout! Learn more

10-Day Weather Forecast

Advertisements
Track Severe Weather on mobile